sensor_id;sensor_type;location;lat;lon;timestamp;pressure;altitude;pressure_sealevel;temperature;humidity
6030;BME280;3043;42.682;23.376;2022-12-24T00:01:07;94774.56;;;3.92;100.00
6030;BME280;3043;42.682;23.376;2022-12-24T00:03:34;94772.91;;;3.84;100.00
6030;BME280;3043;42.682;23.376;2022-12-24T00:06:08;94766.97;;;3.65;100.00
6030;BME280;3043;42.682;23.376;2022-12-24T00:08:34;94774.66;;;3.59;100.00
6030;BME280;3043;42.682;23.376;2022-12-24T00:10:59;94773.81;;;3.60;100.00
6030;BME280;3043;42.682;23.376;2022-12-24T00:13:25;94778.94;;;3.63;100.00
6030;BME280;3043;42.682;23.376;2022-12-24T00:15:50;94768.69;;;3.71;100.00
6030;BME280;3043;42.682;23.376;2022-12-24T00:18:16;94775.47;;;3.79;100.00
6030;BME280;3043;42.682;23.376;2022-12-24T00:20:45;94767.78;;;3.81;100.00
6030;BME280;3043;42.682;23.376;2022-12-24T00:23:11;94772.00;;;3.89;100.00
6030;BME280;3043;42.682;23.376;2022-12-24T00:25:36;94770.31;;;3.94;100.00
6030;BME280;3043;42.682;23.376;2022-12-24T00:28:02;94778.81;;;4.02;100.00
6030;BME280;3043;42.682;23.376;2022-12-24T00:30:27;94778.84;;;3.90;100.00
6030;BME280;3043;42.682;23.376;2022-12-24T00:32:53;94780.56;;;3.88;100.00
6030;BME280;3043;42.682;23.376;2022-12-24T00:35:18;94774.59;;;3.82;100.00
6030;BME280;3043;42.682;23.376;2022-12-24T00:37:46;94773.75;;;3.81;100.00
6030;BME280;3043;42.682;23.376;2022-12-24T00:40:12;94779.69;;;3.94;100.00
6030;BME280;3043;42.682;23.376;2022-12-24T00:42:38;94778.84;;;3.90;100.00
6030;BME280;3043;42.682;23.376;2022-12-24T00:45:03;94786.59;;;3.61;100.00
6030;BME280;3043;42.682;23.376;2022-12-24T00:47:29;94792.56;;;3.53;100.00
6030;BME280;3043;42.682;23.376;2022-12-24T00:49:54;94782.34;;;3.41;100.00
6030;BME280;3043;42.682;23.376;2022-12-24T00:52:20;94779.78;;;3.38;100.00
6030;BME280;3043;42.682;23.376;2022-12-24T00:54:45;94790.91;;;3.31;100.00
6030;BME280;3043;42.682;23.376;2022-12-24T00:57:11;94791.72;;;3.21;100.00
6030;BME280;3043;42.682;23.376;2022-12-24T00:59:36;94796.84;;;3.00;100.00
6030;BME280;3043;42.682;23.376;2022-12-24T01:02:01;94794.28;;;3.00;100.00
6030;BME280;3043;42.682;23.376;2022-12-24T01:04:27;94790.91;;;3.25;100.00
6030;BME280;3043;42.682;23.376;2022-12-24T01:07:11;94797.69;;;2.90;100.00
6030;BME280;3043;42.682;23.376;2022-12-24T01:09:37;94778.94;;;2.94;100.00
6030;BME280;3043;42.682;23.376;2022-12-24T01:12:02;94783.19;;;2.87;100.00
6030;BME280;3043;42.682;23.376;2022-12-24T01:14:28;94794.28;;;2.91;100.00
6030;BME280;3043;42.682;23.376;2022-12-24T01:16:53;94796.84;;;3.01;100.00
6030;BME280;3043;42.682;23.376;2022-12-24T01:19:18;94801.97;;;3.03;100.00
6030;BME280;3043;42.682;23.376;2022-12-24T01:21:44;94796.03;;;3.10;100.00
6030;BME280;3043;42.682;23.376;2022-12-24T01:24:14;94793.47;;;3.23;100.00
6030;BME280;3043;42.682;23.376;2022-12-24T01:26:40;94789.19;;;3.27;100.00
6030;BME280;3043;42.682;23.376;2022-12-24T01:29:05;94778.09;;;3.37;100.00
6030;BME280;3043;42.682;23.376;2022-12-24T01:31:31;94777.22;;;3.44;100.00
6030;BME280;3043;42.682;23.376;2022-12-24T01:33:56;94767.00;;;3.50;100.00
6030;BME280;3043;42.682;23.376;2022-12-24T01:36:22;94777.22;;;3.59;100.00
6030;BME280;3043;42.682;23.376;2022-12-24T01:38:47;94781.47;;;3.55;100.00
6030;BME280;3043;42.682;23.376;2022-12-24T01:41:15;94784.06;;;3.60;100.00
6030;BME280;3043;42.682;23.376;2022-12-24T01:47:02;94790.88;;;3.46;100.00
6030;BME280;3043;42.682;23.376;2022-12-24T01:49:30;94792.56;;;3.57;100.00
6030;BME280;3043;42.682;23.376;2022-12-24T01:52:13;94792.56;;;3.59;100.00
6030;BME280;3043;42.682;23.376;2022-12-24T01:57:27;94782.31;;;3.65;100.00
6030;BME280;3043;42.682;23.376;2022-12-24T01:59:57;94789.16;;;3.66;100.00
6030;BME280;3043;42.682;23.376;2022-12-24T02:02:24;94794.28;;;3.67;100.00
6030;BME280;3043;42.682;23.376;2022-12-24T02:04:56;94781.47;;;3.66;100.00
6030;BME280;3043;42.682;23.376;2022-12-24T02:07:25;94771.25;;;3.60;100.00
6030;BME280;3043;42.682;23.376;2022-12-24T02:09:54;94773.81;;;3.51;100.00
6030;BME280;3043;42.682;23.376;2022-12-24T02:12:21;94779.78;;;3.47;100.00
6030;BME280;3043;42.682;23.376;2022-12-24T02:14:46;94781.50;;;3.37;100.00
6030;BME280;3043;42.682;23.376;2022-12-24T02:27:53;94770.44;;;3.28;100.00
6030;BME280;3043;42.682;23.376;2022-12-24T02:30:22;94775.56;;;3.22;100.00
6030;BME280;3043;42.682;23.376;2022-12-24T02:35:52;94773.00;;;3.25;100.00
6030;BME280;3043;42.682;23.376;2022-12-24T02:38:28;94775.56;;;3.19;100.00
6030;BME280;3043;42.682;23.376;2022-12-24T02:41:00;94772.16;;;3.11;100.00
6030;BME280;3043;42.682;23.376;2022-12-24T02:43:31;94778.13;;;3.10;100.00
6030;BME280;3043;42.682;23.376;2022-12-24T02:46:04;94775.56;;;3.10;100.00
6030;BME280;3043;42.682;23.376;2022-12-24T02:48:31;94773.84;;;3.12;100.00
6030;BME280;3043;42.682;23.376;2022-12-24T02:51:06;94766.16;;;3.24;100.00
6030;BME280;3043;42.682;23.376;2022-12-24T02:53:32;94764.47;;;3.24;100.00
6030;BME280;3043;42.682;23.376;2022-12-24T02:56:36;94744.88;;;3.28;100.00
6030;BME280;3043;42.682;23.376;2022-12-24T03:11:10;94766.16;;;2.92;100.00
6030;BME280;3043;42.682;23.376;2022-12-24T03:13:34;94768.72;;;2.88;100.00
6030;BME280;3043;42.682;23.376;2022-12-24T03:16:04;94767.00;;;2.60;100.00
6030;BME280;3043;42.682;23.376;2022-12-24T03:18:31;94758.50;;;2.82;100.00
6030;BME280;3043;42.682;23.376;2022-12-24T03:21:02;94760.13;;;2.41;100.00
6030;BME280;3043;42.682;23.376;2022-12-24T03:23:30;94770.28;;;2.17;100.00
6030;BME280;3043;42.682;23.376;2022-12-24T03:25:58;94768.56;;;2.07;100.00
6030;BME280;3043;42.682;23.376;2022-12-24T03:28:25;94765.00;;;1.77;100.00
6030;BME280;3043;42.682;23.376;2022-12-24T03:30:52;94755.66;;;1.81;100.00
6030;BME280;3043;42.682;23.376;2022-12-24T03:33:18;94765.09;;;1.96;100.00
6030;BME280;3043;42.682;23.376;2022-12-24T03:35:44;94760.00;;;1.96;100.00
6030;BME280;3043;42.682;23.376;2022-12-24T03:38:10;94772.72;;;1.87;100.00
6030;BME280;3043;42.682;23.376;2022-12-24T03:40:35;94763.38;;;1.98;100.00
6030;BME280;3043;42.682;23.376;2022-12-24T03:43:01;94759.97;;;1.88;100.00
6030;BME280;3043;42.682;23.376;2022-12-24T03:45:26;94759.94;;;1.83;100.00
6030;BME280;3043;42.682;23.376;2022-12-24T03:47:52;94758.16;;;1.73;100.00
6030;BME280;3043;42.682;23.376;2022-12-24T03:50:17;94765.00;;;1.77;100.00
6030;BME280;3043;42.682;23.376;2022-12-24T03:52:42;94762.47;;;1.80;100.00
6030;BME280;3043;42.682;23.376;2022-12-24T03:55:08;94763.31;;;1.79;100.00
6030;BME280;3043;42.682;23.376;2022-12-24T03:57:34;94760.78;;;1.84;100.00
6030;BME280;3043;42.682;23.376;2022-12-24T03:59:59;94769.31;;;1.94;100.00
6030;BME280;3043;42.682;23.376;2022-12-24T04:02:25;94771.84;;;1.86;100.00
6030;BME280;3043;42.682;23.376;2022-12-24T04:04:50;94771.88;;;1.97;100.00
6030;BME280;3043;42.682;23.376;2022-12-24T04:07:15;94773.53;;;1.88;100.00
6030;BME280;3043;42.682;23.376;2022-12-24T04:09:41;94762.50;;;1.90;100.00
6030;BME280;3043;42.682;23.376;2022-12-24T04:12:07;94782.13;;;2.06;100.00
6030;BME280;3043;42.682;23.376;2022-12-24T04:14:32;94781.34;;;2.13;100.00
6030;BME280;3043;42.682;23.376;2022-12-24T04:16:58;94789.03;;;2.28;100.00
6030;BME280;3043;42.682;23.376;2022-12-24T04:19:23;94789.88;;;2.28;100.00
6030;BME280;3043;42.682;23.376;2022-12-24T04:21:49;94782.25;;;2.37;100.00
6030;BME280;3043;42.682;23.376;2022-12-24T04:24:14;94784.81;;;2.46;100.00
6030;BME280;3043;42.682;23.376;2022-12-24T04:26:40;94779.72;;;2.54;100.00
6030;BME280;3043;42.682;23.376;2022-12-24T04:29:06;94780.59;;;2.59;100.00
6030;BME280;3043;42.682;23.376;2022-12-24T04:31:31;94787.44;;;2.57;100.00
6030;BME280;3043;42.682;23.376;2022-12-24T04:33:57;94799.34;;;2.62;100.00
6030;BME280;3043;42.682;23.376;2022-12-24T04:36:22;94796.81;;;2.67;100.00
6030;BME280;3043;42.682;23.376;2022-12-24T04:38:48;94798.50;;;2.66;100.00
6030;BME280;3043;42.682;23.376;2022-12-24T04:41:19;94811.25;;;2.62;100.00
6030;BME280;3043;42.682;23.376;2022-12-24T04:43:45;94814.63;;;2.43;100.00
6030;BME280;3043;42.682;23.376;2022-12-24T04:46:13;94808.59;;;2.26;100.00
6030;BME280;3043;42.682;23.376;2022-12-24T04:48:39;94821.28;;;2.08;100.00
6030;BME280;3043;42.682;23.376;2022-12-24T04:51:06;94815.34;;;2.13;100.00
6030;BME280;3043;42.682;23.376;2022-12-24T04:53:32;94813.56;;;1.94;100.00
6030;BME280;3043;42.682;23.376;2022-12-24T04:55:58;94808.50;;;2.02;100.00
6030;BME280;3043;42.682;23.376;2022-12-24T04:58:24;94816.84;;;1.73;100.00
6030;BME280;3043;42.682;23.376;2022-12-24T05:00:49;94806.66;;;1.75;100.00
6030;BME280;3043;42.682;23.376;2022-12-24T05:03:15;94812.53;;;1.63;100.00
6030;BME280;3043;42.682;23.376;2022-12-24T05:05:40;94801.44;;;1.57;100.00
6030;BME280;3043;42.682;23.376;2022-12-24T05:08:06;94797.94;;;1.40;100.00
6030;BME280;3043;42.682;23.376;2022-12-24T05:10:31;94803.88;;;1.37;100.00
6030;BME280;3043;42.682;23.376;2022-12-24T05:12:57;94800.66;;;1.62;100.00
6030;BME280;3043;42.682;23.376;2022-12-24T05:15:22;94797.13;;;1.45;100.00
6030;BME280;3043;42.682;23.376;2022-12-24T05:17:48;94793.66;;;1.37;100.00
6030;BME280;3043;42.682;23.376;2022-12-24T05:20:14;94785.13;;;1.32;100.00
6030;BME280;3043;42.682;23.376;2022-12-24T05:22:40;94778.38;;;1.37;100.00
6030;BME280;3043;42.682;23.376;2022-12-24T05:25:24;94781.56;;;1.06;100.00
6030;BME280;3043;42.682;23.376;2022-12-24T05:28:09;94780.47;;;0.77;100.00
6030;BME280;3043;42.682;23.376;2022-12-24T05:30:34;94788.03;;;0.68;100.00
6030;BME280;3043;42.682;23.376;2022-12-24T05:32:59;94787.97;;;0.62;100.00
6030;BME280;3043;42.682;23.376;2022-12-24T05:35:25;94792.09;;;0.53;100.00
6030;BME280;3043;42.682;23.376;2022-12-24T05:37:50;94786.16;;;0.52;100.00
6030;BME280;3043;42.682;23.376;2022-12-24T05:40:16;94787.03;;;0.54;100.00
6030;BME280;3043;42.682;23.376;2022-12-24T05:42:41;94784.47;;;0.51;100.00
6030;BME280;3043;42.682;23.376;2022-12-24T05:45:07;94784.44;;;0.48;100.00
6030;BME280;3043;42.682;23.376;2022-12-24T05:47:33;94772.59;;;0.53;100.00
6030;BME280;3043;42.682;23.376;2022-12-24T05:49:58;94786.09;;;0.46;100.00
6030;BME280;3043;42.682;23.376;2022-12-24T05:52:23;94779.34;;;0.48;100.00
6030;BME280;3043;42.682;23.376;2022-12-24T05:54:49;94769.22;;;0.54;100.00
6030;BME280;3043;42.682;23.376;2022-12-24T05:57:15;94767.56;;;0.59;100.00
6030;BME280;3043;42.682;23.376;2022-12-24T05:59:40;94768.41;;;0.61;100.00
6030;BME280;3043;42.682;23.376;2022-12-24T06:02:06;94776.91;;;0.60;100.00
6030;BME280;3043;42.682;23.376;2022-12-24T06:04:31;94786.22;;;0.58;100.00
6030;BME280;3043;42.682;23.376;2022-12-24T06:06:57;94783.69;;;0.61;100.00
6030;BME280;3043;42.682;23.376;2022-12-24T06:09:22;94789.69;;;0.66;100.00
6030;BME280;3043;42.682;23.376;2022-12-24T06:11:47;94789.75;;;0.72;100.00
6030;BME280;3043;42.682;23.376;2022-12-24T06:14:13;94785.50;;;0.71;100.00
6030;BME280;3043;42.682;23.376;2022-12-24T06:16:38;94789.13;;;1.00;100.00
6030;BME280;3043;42.682;23.376;2022-12-24T06:19:04;94798.44;;;0.95;100.00
6030;BME280;3043;42.682;23.376;2022-12-24T06:21:29;94796.66;;;0.85;100.00
6030;BME280;3043;42.682;23.376;2022-12-24T06:23:55;94805.13;;;0.84;100.00
6030;BME280;3043;42.682;23.376;2022-12-24T06:26:21;94806.84;;;0.85;100.00
6030;BME280;3043;42.682;23.376;2022-12-24T06:28:48;94810.34;;;0.98;100.00
6030;BME280;3043;42.682;23.376;2022-12-24T06:31:17;94801.13;;;1.12;100.00
6030;BME280;3043;42.682;23.376;2022-12-24T06:33:43;94805.34;;;1.08;100.00
6030;BME280;3043;42.682;23.376;2022-12-24T06:36:12;94810.56;;;1.23;100.00
6030;BME280;3043;42.682;23.376;2022-12-24T06:38:38;94826.72;;;1.24;100.00
6030;BME280;3043;42.682;23.376;2022-12-24T06:41:07;94823.19;;;1.11;100.00
6030;BME280;3043;42.682;23.376;2022-12-24T06:43:33;94825.69;;;1.05;100.00
6030;BME280;3043;42.682;23.376;2022-12-24T06:46:00;94827.44;;;1.06;100.00
6030;BME280;3043;42.682;23.376;2022-12-24T06:48:26;94828.59;;;1.49;100.00
6030;BME280;3043;42.682;23.376;2022-12-24T06:50:51;94835.56;;;1.72;100.00
6030;BME280;3043;42.682;23.376;2022-12-24T06:53:17;94834.78;;;1.85;100.00
6030;BME280;3043;42.682;23.376;2022-12-24T06:55:42;94836.25;;;1.50;100.00
6030;BME280;3043;42.682;23.376;2022-12-24T06:58:08;94836.19;;;1.41;100.00
6030;BME280;3043;42.682;23.376;2022-12-24T07:00:34;94832.06;;;1.58;100.00
6030;BME280;3043;42.682;23.376;2022-12-24T07:02:59;94836.50;;;1.87;100.00
6030;BME280;3043;42.682;23.376;2022-12-24T07:05:25;94826.63;;;2.77;100.00
6030;BME280;3043;42.682;23.376;2022-12-24T07:07:51;94818.97;;;3.88;100.00
6030;BME280;3043;42.682;23.376;2022-12-24T07:10:18;94816.06;;;4.75;100.00
6030;BME280;3043;42.682;23.376;2022-12-24T07:12:44;94829.97;;;5.62;100.00
6030;BME280;3043;42.682;23.376;2022-12-24T07:15:11;94833.22;;;6.64;100.00
6030;BME280;3043;42.682;23.376;2022-12-24T07:17:36;94846.03;;;7.32;100.00
6030;BME280;3043;42.682;23.376;2022-12-24T07:20:03;94852.34;;;8.18;100.00
6030;BME280;3043;42.682;23.376;2022-12-24T07:22:28;94855.44;;;8.83;100.00
6030;BME280;3043;42.682;23.376;2022-12-24T07:24:54;94856.06;;;8.94;100.00
6030;BME280;3043;42.682;23.376;2022-12-24T07:27:19;94858.38;;;9.07;100.00
6030;BME280;3043;42.682;23.376;2022-12-24T07:29:44;94861.91;;;8.60;100.00
6030;BME280;3043;42.682;23.376;2022-12-24T07:32:10;94868.16;;;8.48;100.00
6030;BME280;3043;42.682;23.376;2022-12-24T07:34:35;94871.19;;;8.23;100.00
6030;BME280;3043;42.682;23.376;2022-12-24T07:37:01;94871.91;;;7.23;100.00
6030;BME280;3043;42.682;23.376;2022-12-24T07:39:26;94881.16;;;6.71;100.00
6030;BME280;3043;42.682;23.376;2022-12-24T07:41:53;94874.72;;;6.32;100.00
6030;BME280;3043;42.682;23.376;2022-12-24T07:44:18;94876.66;;;6.11;100.00
6030;BME280;3043;42.682;23.376;2022-12-24T07:46:44;94860.41;;;6.10;100.00
6030;BME280;3043;42.682;23.376;2022-12-24T07:49:10;94869.56;;;6.34;100.00
6030;BME280;3043;42.682;23.376;2022-12-24T07:51:36;94868.75;;;7.03;100.00
6030;BME280;3043;42.682;23.376;2022-12-24T07:54:02;94864.78;;;7.95;100.00
6030;BME280;3043;42.682;23.376;2022-12-24T07:56:29;94876.88;;;8.41;100.00
6030;BME280;3043;42.682;23.376;2022-12-24T07:58:55;94883.69;;;8.45;100.00
6030;BME280;3043;42.682;23.376;2022-12-24T08:01:20;94879.38;;;8.46;100.00
6030;BME280;3043;42.682;23.376;2022-12-24T08:03:46;94885.72;;;8.28;100.00
6030;BME280;3043;42.682;23.376;2022-12-24T08:06:11;94894.63;;;8.09;100.00
6030;BME280;3043;42.682;23.376;2022-12-24T08:08:37;94891.19;;;8.07;100.00
6030;BME280;3043;42.682;23.376;2022-12-24T08:11:04;94898.16;;;8.02;100.00
6030;BME280;3043;42.682;23.376;2022-12-24T08:13:30;94905.56;;;7.70;100.00
6030;BME280;3043;42.682;23.376;2022-12-24T08:15:56;94904.56;;;7.77;100.00
6030;BME280;3043;42.682;23.376;2022-12-24T08:18:21;94908.63;;;7.34;100.00
6030;BME280;3043;42.682;23.376;2022-12-24T08:20:47;94905.56;;;7.08;100.00
6030;BME280;3043;42.682;23.376;2022-12-24T08:23:12;94915.34;;;6.82;100.00
6030;BME280;3043;42.682;23.376;2022-12-24T08:25:42;94904.00;;;6.96;100.00
6030;BME280;3043;42.682;23.376;2022-12-24T08:28:07;94899.38;;;7.22;100.00
6030;BME280;3043;42.682;23.376;2022-12-24T08:30:33;94891.09;;;6.98;100.00
6030;BME280;3043;42.682;23.376;2022-12-24T08:32:59;94887.63;;;7.02;100.00
6030;BME280;3043;42.682;23.376;2022-12-24T08:35:25;94889.72;;;6.73;100.00
6030;BME280;3043;42.682;23.376;2022-12-24T08:37:50;94879.69;;;7.20;100.00
6030;BME280;3043;42.682;23.376;2022-12-24T08:40:16;94887.41;;;7.17;100.00
6030;BME280;3043;42.682;23.376;2022-12-24T08:42:41;94871.56;;;6.85;100.00
6030;BME280;3043;42.682;23.376;2022-12-24T08:45:07;94869.94;;;6.75;100.00
6030;BME280;3043;42.682;23.376;2022-12-24T08:47:34;94858.81;;;6.76;100.00
6030;BME280;3043;42.682;23.376;2022-12-24T08:49:59;94869.88;;;6.81;100.00
6030;BME280;3043;42.682;23.376;2022-12-24T08:52:25;94860.41;;;7.45;100.00
6030;BME280;3043;42.682;23.376;2022-12-24T08:54:50;94874.34;;;7.34;100.00
6030;BME280;3043;42.682;23.376;2022-12-24T08:57:15;94861.84;;;7.64;100.00
6030;BME280;3043;42.682;23.376;2022-12-24T08:59:41;94880.94;;;7.51;100.00
6030;BME280;3043;42.682;23.376;2022-12-24T09:02:08;94887.78;;;7.51;100.00
6030;BME280;3043;42.682;23.376;2022-12-24T09:04:33;94883.47;;;7.54;100.00
6030;BME280;3043;42.682;23.376;2022-12-24T09:07:01;94874.84;;;7.55;100.00
6030;BME280;3043;42.682;23.376;2022-12-24T09:09:27;94877.03;;;7.82;100.00
6030;BME280;3043;42.682;23.376;2022-12-24T09:11:53;94872.44;;;7.99;100.00
6030;BME280;3043;42.682;23.376;2022-12-24T09:14:18;94869.28;;;7.82;100.00
6030;BME280;3043;42.682;23.376;2022-12-24T09:16:44;94873.91;;;7.62;100.00
6030;BME280;3043;42.682;23.376;2022-12-24T09:19:09;94872.13;;;7.64;100.00
6030;BME280;3043;42.682;23.376;2022-12-24T09:21:34;94871.31;;;7.62;100.00
6030;BME280;3043;42.682;23.376;2022-12-24T09:24:02;94868.81;;;7.59;100.00
6030;BME280;3043;42.682;23.376;2022-12-24T09:26:28;94873.59;;;7.25;100.00
6030;BME280;3043;42.682;23.376;2022-12-24T09:28:57;94870.88;;;6.71;100.00
6030;BME280;3043;42.682;23.376;2022-12-24T09:31:25;94861.63;;;6.53;100.00
6030;BME280;3043;42.682;23.376;2022-12-24T09:33:50;94870.25;;;6.49;100.00
6030;BME280;3043;42.682;23.376;2022-12-24T09:36:17;94859.19;;;6.43;100.00
6030;BME280;3043;42.682;23.376;2022-12-24T09:38:43;94864.81;;;6.75;100.00
6030;BME280;3043;42.682;23.376;2022-12-24T09:43:51;94857.72;;;6.21;100.00
6030;BME280;3043;42.682;23.376;2022-12-24T09:46:32;94855.25;;;6.12;100.00
6030;BME280;3043;42.682;23.376;2022-12-24T09:49:03;94851.75;;;6.17;100.00
6030;BME280;3043;42.682;23.376;2022-12-24T09:51:40;94850.25;;;5.97;100.00
6030;BME280;3043;42.682;23.376;2022-12-24T09:54:28;94856.09;;;6.11;100.00
6030;BME280;3043;42.682;23.376;2022-12-24T09:56:57;94851.59;;;6.32;100.00
6030;BME280;3043;42.682;23.376;2022-12-24T09:59:40;94849.72;;;6.48;100.00
6030;BME280;3043;42.682;23.376;2022-12-24T10:02:13;94856.50;;;6.52;100.00
6030;BME280;3043;42.682;23.376;2022-12-24T10:04:40;94848.13;;;6.38;100.00
6030;BME280;3043;42.682;23.376;2022-12-24T10:12:53;94856.56;;;6.46;100.00
6030;BME280;3043;42.682;23.376;2022-12-24T10:20:36;94838.38;;;6.64;100.00
6030;BME280;3043;42.682;23.376;2022-12-24T10:23:18;94835.53;;;6.86;100.00
6030;BME280;3043;42.682;23.376;2022-12-24T10:26:14;94831.59;;;7.22;100.00
6030;BME280;3043;42.682;23.376;2022-12-24T10:28:52;94838.06;;;7.49;100.00
6030;BME280;3043;42.682;23.376;2022-12-24T10:31:35;94836.06;;;7.66;100.00
6030;BME280;3043;42.682;23.376;2022-12-24T10:34:11;94849.69;;;7.72;100.00
6030;BME280;3043;42.682;23.376;2022-12-24T10:36:39;94848.78;;;7.76;100.00
6030;BME280;3043;42.682;23.376;2022-12-24T10:39:18;94847.34;;;8.09;100.00
6030;BME280;3043;42.682;23.376;2022-12-24T10:41:50;94836.81;;;8.24;100.00
6030;BME280;3043;42.682;23.376;2022-12-24T10:44:18;94839.00;;;8.43;100.00
6030;BME280;3043;42.682;23.376;2022-12-24T10:46:46;94833.66;;;8.52;100.00
6030;BME280;3043;42.682;23.376;2022-12-24T10:49:15;94827.81;;;8.88;100.00
6030;BME280;3043;42.682;23.376;2022-12-24T10:52:21;94821.19;;;9.15;100.00
6030;BME280;3043;42.682;23.376;2022-12-24T10:57:31;94835.22;;;9.42;100.00
6030;BME280;3043;42.682;23.376;2022-12-24T10:59:56;94830.13;;;9.00;100.00
6030;BME280;3043;42.682;23.376;2022-12-24T11:02:38;94825.94;;;8.93;100.00
6030;BME280;3043;42.682;23.376;2022-12-24T11:05:08;94834.88;;;9.19;100.00
6030;BME280;3043;42.682;23.376;2022-12-24T11:08:01;94829.50;;;8.89;100.00
6030;BME280;3043;42.682;23.376;2022-12-24T11:10:27;94834.47;;;8.98;100.00
6030;BME280;3043;42.682;23.376;2022-12-24T11:12:53;94835.38;;;8.96;100.00
6030;BME280;3043;42.682;23.376;2022-12-24T11:15:23;94837.41;;;8.80;100.00
6030;BME280;3043;42.682;23.376;2022-12-24T11:18:02;94827.88;;;8.85;100.00
6030;BME280;3043;42.682;23.376;2022-12-24T11:20:31;94820.59;;;9.02;100.00
6030;BME280;3043;42.682;23.376;2022-12-24T11:22:58;94817.53;;;9.25;100.00
6030;BME280;3043;42.682;23.376;2022-12-24T11:25:26;94813.19;;;9.26;100.00
6030;BME280;3043;42.682;23.376;2022-12-24T11:27:54;94813.34;;;9.20;100.00
6030;BME280;3043;42.682;23.376;2022-12-24T11:30:23;94816.19;;;9.46;100.00
6030;BME280;3043;42.682;23.376;2022-12-24T11:33:16;94772.81;;;10.27;100.00
6030;BME280;3043;42.682;23.376;2022-12-24T11:35:46;94785.44;;;10.68;100.00
6030;BME280;3043;42.682;23.376;2022-12-24T11:38:19;94809.28;;;10.79;100.00
6030;BME280;3043;42.682;23.376;2022-12-24T11:40:48;94802.09;;;11.18;100.00
6030;BME280;3043;42.682;23.376;2022-12-24T11:43:20;94804.38;;;11.56;100.00
6030;BME280;3043;42.682;23.376;2022-12-24T11:45:55;94824.06;;;11.61;100.00
6030;BME280;3043;42.682;23.376;2022-12-24T11:48:30;94822.34;;;11.89;100.00
6030;BME280;3043;42.682;23.376;2022-12-24T11:51:01;94824.53;;;12.01;100.00
6030;BME280;3043;42.682;23.376;2022-12-24T11:53:35;94824.34;;;12.07;100.00
6030;BME280;3043;42.682;23.376;2022-12-24T11:56:06;94814.16;;;12.01;100.00
6030;BME280;3043;42.682;23.376;2022-12-24T11:58:52;94825.41;;;12.00;100.00
6030;BME280;3043;42.682;23.376;2022-12-24T12:01:25;94821.91;;;12.03;100.00
6030;BME280;3043;42.682;23.376;2022-12-24T12:03:59;94823.72;;;11.73;100.00
6030;BME280;3043;42.682;23.376;2022-12-24T12:06:27;94809.84;;;11.74;100.00
6030;BME280;3043;42.682;23.376;2022-12-24T12:09:00;94811.84;;;11.66;100.00
6030;BME280;3043;42.682;23.376;2022-12-24T12:11:27;94812.19;;;11.54;100.00
6030;BME280;3043;42.682;23.376;2022-12-24T12:13:57;94811.25;;;11.84;100.00
6030;BME280;3043;42.682;23.376;2022-12-24T12:16:29;94809.06;;;11.98;100.00
6030;BME280;3043;42.682;23.376;2022-12-24T12:19:18;94814.25;;;11.72;100.00
6030;BME280;3043;42.682;23.376;2022-12-24T12:21:46;94810.66;;;11.76;100.00
6030;BME280;3043;42.682;23.376;2022-12-24T12:24:26;94820.50;;;11.65;100.00
6030;BME280;3043;42.682;23.376;2022-12-24T12:27:16;94813.03;;;11.55;100.00
6030;BME280;3043;42.682;23.376;2022-12-24T12:29:53;94807.03;;;11.54;100.00
6030;BME280;3043;42.682;23.376;2022-12-24T12:32:33;94816.94;;;11.95;100.00
6030;BME280;3043;42.682;23.376;2022-12-24T12:35:15;94813.34;;;11.73;100.00
6030;BME280;3043;42.682;23.376;2022-12-24T12:37:48;94809.94;;;11.44;100.00
6030;BME280;3043;42.682;23.376;2022-12-24T12:40:16;94815.38;;;11.36;100.00
6030;BME280;3043;42.682;23.376;2022-12-24T12:42:51;94806.72;;;11.36;100.00
6030;BME280;3043;42.682;23.376;2022-12-24T12:51:34;94821.50;;;10.74;100.00
6030;BME280;3043;42.682;23.376;2022-12-24T12:56:35;94828.22;;;10.17;100.00
6030;BME280;3043;42.682;23.376;2022-12-24T13:01:57;94831.53;;;9.52;100.00
6030;BME280;3043;42.682;23.376;2022-12-24T13:09:52;94832.16;;;9.63;100.00
6030;BME280;3043;42.682;23.376;2022-12-24T13:20:19;94837.72;;;9.07;100.00
6030;BME280;3043;42.682;23.376;2022-12-24T13:25:44;94848.00;;;9.10;100.00
6030;BME280;3043;42.682;23.376;2022-12-24T13:46:49;94851.63;;;8.99;100.00
6030;BME280;3043;42.682;23.376;2022-12-24T13:49:20;94857.22;;;8.78;100.00
6030;BME280;3043;42.682;23.376;2022-12-24T13:51:47;94862.41;;;8.78;100.00
6030;BME280;3043;42.682;23.376;2022-12-24T13:54:17;94875.06;;;8.90;100.00
6030;BME280;3043;42.682;23.376;2022-12-24T13:56:45;94873.38;;;8.89;100.00
6030;BME280;3043;42.682;23.376;2022-12-24T13:59:33;94865.94;;;8.74;100.00
6030;BME280;3043;42.682;23.376;2022-12-24T14:01:59;94865.63;;;8.89;100.00
6030;BME280;3043;42.682;23.376;2022-12-24T14:04:29;94863.00;;;8.91;100.00
6030;BME280;3043;42.682;23.376;2022-12-24T14:06:58;94862.22;;;8.87;100.00
6030;BME280;3043;42.682;23.376;2022-12-24T14:09:26;94860.13;;;9.04;100.00
6030;BME280;3043;42.682;23.376;2022-12-24T14:14:30;94864.06;;;8.82;100.00
6030;BME280;3043;42.682;23.376;2022-12-24T14:19:41;94864.88;;;8.83;100.00
6030;BME280;3043;42.682;23.376;2022-12-24T14:22:13;94870.97;;;8.80;100.00
6030;BME280;3043;42.682;23.376;2022-12-24T14:24:58;94869.34;;;8.76;100.00
6030;BME280;3043;42.682;23.376;2022-12-24T14:32:34;94865.75;;;8.83;100.00
6030;BME280;3043;42.682;23.376;2022-12-24T14:37:39;94866.22;;;8.59;100.00
6030;BME280;3043;42.682;23.376;2022-12-24T14:40:06;94873.13;;;8.57;100.00
6030;BME280;3043;42.682;23.376;2022-12-24T14:53:39;94870.22;;;8.28;100.00
6030;BME280;3043;42.682;23.376;2022-12-24T14:56:20;94856.44;;;8.32;100.00
6030;BME280;3043;42.682;23.376;2022-12-24T14:58:47;94864.97;;;8.34;100.00
6030;BME280;3043;42.682;23.376;2022-12-24T15:06:35;94853.16;;;8.21;100.00
6030;BME280;3043;42.682;23.376;2022-12-24T15:09:01;94867.13;;;8.08;100.00
6030;BME280;3043;42.682;23.376;2022-12-24T15:11:27;94865.47;;;8.04;100.00
6030;BME280;3043;42.682;23.376;2022-12-24T15:13:55;94856.59;;;8.20;100.00
6030;BME280;3043;42.682;23.376;2022-12-24T15:16:25;94861.69;;;8.26;100.00
6030;BME280;3043;42.682;23.376;2022-12-24T15:18:54;94871.78;;;8.38;100.00
6030;BME280;3043;42.682;23.376;2022-12-24T15:21:29;94876.88;;;8.41;100.00